sensor_id;sensor_type;location;lat;lon;timestamp;P1;durP1;ratioP1;P2;durP2;ratioP2
17175;SDS011;8703;48.996;9.594;2022-08-30T00:01:30;6.63;;;4.25;;
17175;SDS011;8703;48.996;9.594;2022-08-30T00:03:58;5.63;;;4.15;;
17175;SDS011;8703;48.996;9.594;2022-08-30T00:06:27;5.72;;;3.97;;
17175;SDS011;8703;48.996;9.594;2022-08-30T00:08:55;5.30;;;4.10;;
17175;SDS011;8703;48.996;9.594;2022-08-30T00:11:26;6.40;;;4.32;;
17175;SDS011;8703;48.996;9.594;2022-08-30T00:13:54;7.30;;;4.13;;
17175;SDS011;8703;48.996;9.594;2022-08-30T00:16:22;7.88;;;4.18;;
17175;SDS011;8703;48.996;9.594;2022-08-30T00:18:50;5.07;;;4.05;;
17175;SDS011;8703;48.996;9.594;2022-08-30T00:21:18;6.50;;;4.20;;
17175;SDS011;8703;48.996;9.594;2022-08-30T00:23:45;4.93;;;4.10;;
17175;SDS011;8703;48.996;9.594;2022-08-30T00:26:12;7.63;;;4.22;;
17175;SDS011;8703;48.996;9.594;2022-08-30T00:28:41;6.23;;;4.17;;
17175;SDS011;8703;48.996;9.594;2022-08-30T00:31:08;7.13;;;4.50;;
17175;SDS011;8703;48.996;9.594;2022-08-30T00:33:36;7.57;;;4.75;;
17175;SDS011;8703;48.996;9.594;2022-08-30T00:36:05;5.90;;;4.33;;
17175;SDS011;8703;48.996;9.594;2022-08-30T00:38:32;6.88;;;4.30;;
17175;SDS011;8703;48.996;9.594;2022-08-30T00:40:59;7.37;;;4.10;;
17175;SDS011;8703;48.996;9.594;2022-08-30T00:43:28;7.38;;;4.15;;
17175;SDS011;8703;48.996;9.594;2022-08-30T00:45:59;7.17;;;4.23;;
17175;SDS011;8703;48.996;9.594;2022-08-30T00:48:28;5.80;;;4.50;;
17175;SDS011;8703;48.996;9.594;2022-08-30T00:50:56;6.88;;;4.57;;
17175;SDS011;8703;48.996;9.594;2022-08-30T00:53:26;6.68;;;4.55;;
17175;SDS011;8703;48.996;9.594;2022-08-30T00:55:56;5.60;;;4.40;;
17175;SDS011;8703;48.996;9.594;2022-08-30T00:58:26;6.27;;;4.60;;
17175;SDS011;8703;48.996;9.594;2022-08-30T01:00:56;7.75;;;4.45;;
17175;SDS011;8703;48.996;9.594;2022-08-30T01:03:25;5.00;;;4.30;;
17175;SDS011;8703;48.996;9.594;2022-08-30T01:05:53;8.20;;;4.80;;
17175;SDS011;8703;48.996;9.594;2022-08-30T01:08:22;6.43;;;4.50;;
17175;SDS011;8703;48.996;9.594;2022-08-30T01:10:51;6.73;;;4.67;;
17175;SDS011;8703;48.996;9.594;2022-08-30T01:13:19;6.77;;;4.67;;
17175;SDS011;8703;48.996;9.594;2022-08-30T01:15:47;5.93;;;4.50;;
17175;SDS011;8703;48.996;9.594;2022-08-30T01:18:17;5.30;;;4.10;;
17175;SDS011;8703;48.996;9.594;2022-08-30T01:20:46;7.80;;;4.47;;
17175;SDS011;8703;48.996;9.594;2022-08-30T01:23:17;5.23;;;4.50;;
17175;SDS011;8703;48.996;9.594;2022-08-30T01:25:47;5.53;;;3.90;;
17175;SDS011;8703;48.996;9.594;2022-08-30T01:28:16;5.40;;;4.33;;
17175;SDS011;8703;48.996;9.594;2022-08-30T01:30:45;6.73;;;4.73;;
17175;SDS011;8703;48.996;9.594;2022-08-30T01:33:13;9.13;;;4.80;;
17175;SDS011;8703;48.996;9.594;2022-08-30T01:35:43;7.57;;;4.43;;
17175;SDS011;8703;48.996;9.594;2022-08-30T01:38:13;5.33;;;4.50;;
17175;SDS011;8703;48.996;9.594;2022-08-30T01:40:43;5.50;;;4.23;;
17175;SDS011;8703;48.996;9.594;2022-08-30T01:43:11;5.03;;;4.30;;
17175;SDS011;8703;48.996;9.594;2022-08-30T01:45:40;9.05;;;4.82;;
17175;SDS011;8703;48.996;9.594;2022-08-30T01:48:08;5.22;;;4.40;;
17175;SDS011;8703;48.996;9.594;2022-08-30T01:50:36;5.10;;;4.20;;
17175;SDS011;8703;48.996;9.594;2022-08-30T01:53:04;5.50;;;4.70;;
17175;SDS011;8703;48.996;9.594;2022-08-30T01:55:32;6.40;;;4.40;;
17175;SDS011;8703;48.996;9.594;2022-08-30T01:58:01;6.87;;;4.67;;
17175;SDS011;8703;48.996;9.594;2022-08-30T02:00:29;7.00;;;4.40;;
17175;SDS011;8703;48.996;9.594;2022-08-30T02:02:56;4.97;;;4.33;;
17175;SDS011;8703;48.996;9.594;2022-08-30T02:05:24;6.00;;;4.13;;
17175;SDS011;8703;48.996;9.594;2022-08-30T02:07:51;5.27;;;4.47;;
17175;SDS011;8703;48.996;9.594;2022-08-30T02:10:18;5.87;;;4.37;;
17175;SDS011;8703;48.996;9.594;2022-08-30T02:12:46;7.20;;;4.13;;
17175;SDS011;8703;48.996;9.594;2022-08-30T02:15:15;5.03;;;3.83;;
17175;SDS011;8703;48.996;9.594;2022-08-30T02:17:43;4.93;;;3.80;;
17175;SDS011;8703;48.996;9.594;2022-08-30T02:20:10;6.37;;;4.00;;
17175;SDS011;8703;48.996;9.594;2022-08-30T02:22:37;6.00;;;4.20;;
17175;SDS011;8703;48.996;9.594;2022-08-30T02:25:05;6.53;;;3.70;;
17175;SDS011;8703;48.996;9.594;2022-08-30T02:27:33;5.73;;;4.10;;
17175;SDS011;8703;48.996;9.594;2022-08-30T02:30:01;6.37;;;4.00;;
17175;SDS011;8703;48.996;9.594;2022-08-30T02:32:31;5.93;;;4.23;;
17175;SDS011;8703;48.996;9.594;2022-08-30T02:34:58;7.00;;;4.33;;
17175;SDS011;8703;48.996;9.594;2022-08-30T02:37:26;5.23;;;4.07;;
17175;SDS011;8703;48.996;9.594;2022-08-30T02:39:53;7.73;;;4.23;;
17175;SDS011;8703;48.996;9.594;2022-08-30T02:42:20;7.27;;;4.20;;
17175;SDS011;8703;48.996;9.594;2022-08-30T02:44:47;5.87;;;3.90;;
17175;SDS011;8703;48.996;9.594;2022-08-30T02:47:15;5.90;;;4.17;;
17175;SDS011;8703;48.996;9.594;2022-08-30T02:49:43;5.80;;;4.27;;
17175;SDS011;8703;48.996;9.594;2022-08-30T02:52:11;6.50;;;3.83;;
17175;SDS011;8703;48.996;9.594;2022-08-30T02:54:38;7.97;;;4.33;;
17175;SDS011;8703;48.996;9.594;2022-08-30T02:57:05;6.43;;;4.00;;
17175;SDS011;8703;48.996;9.594;2022-08-30T02:59:33;5.43;;;4.20;;
17175;SDS011;8703;48.996;9.594;2022-08-30T03:02:05;4.67;;;4.03;;
17175;SDS011;8703;48.996;9.594;2022-08-30T03:04:32;8.30;;;4.20;;
17175;SDS011;8703;48.996;9.594;2022-08-30T03:07:01;6.83;;;4.20;;
17175;SDS011;8703;48.996;9.594;2022-08-30T03:09:29;5.57;;;3.90;;
17175;SDS011;8703;48.996;9.594;2022-08-30T03:11:56;5.27;;;4.30;;
17175;SDS011;8703;48.996;9.594;2022-08-30T03:14:23;5.57;;;3.77;;
17175;SDS011;8703;48.996;9.594;2022-08-30T03:16:52;6.33;;;4.27;;
17175;SDS011;8703;48.996;9.594;2022-08-30T03:19:19;5.67;;;4.30;;
17175;SDS011;8703;48.996;9.594;2022-08-30T03:21:47;5.60;;;3.90;;
17175;SDS011;8703;48.996;9.594;2022-08-30T03:24:16;4.67;;;4.03;;
17175;SDS011;8703;48.996;9.594;2022-08-30T03:26:44;5.70;;;4.40;;
17175;SDS011;8703;48.996;9.594;2022-08-30T03:29:11;7.23;;;4.30;;
17175;SDS011;8703;48.996;9.594;2022-08-30T03:31:39;6.13;;;4.00;;
17175;SDS011;8703;48.996;9.594;2022-08-30T03:34:06;6.37;;;4.40;;
17175;SDS011;8703;48.996;9.594;2022-08-30T03:36:35;7.37;;;4.77;;
17175;SDS011;8703;48.996;9.594;2022-08-30T03:39:03;4.77;;;4.27;;
17175;SDS011;8703;48.996;9.594;2022-08-30T03:41:32;7.87;;;4.50;;
17175;SDS011;8703;48.996;9.594;2022-08-30T03:43:59;6.30;;;4.43;;
17175;SDS011;8703;48.996;9.594;2022-08-30T03:46:27;6.00;;;4.40;;
17175;SDS011;8703;48.996;9.594;2022-08-30T03:48:55;4.57;;;4.03;;
17175;SDS011;8703;48.996;9.594;2022-08-30T03:51:22;6.07;;;4.47;;
17175;SDS011;8703;48.996;9.594;2022-08-30T03:53:50;6.33;;;4.47;;
17175;SDS011;8703;48.996;9.594;2022-08-30T03:56:18;5.80;;;4.60;;
17175;SDS011;8703;48.996;9.594;2022-08-30T03:58:47;7.17;;;4.50;;
17175;SDS011;8703;48.996;9.594;2022-08-30T04:01:14;6.10;;;4.30;;
17175;SDS011;8703;48.996;9.594;2022-08-30T04:03:42;7.67;;;4.57;;
17175;SDS011;8703;48.996;9.594;2022-08-30T04:06:10;7.40;;;4.47;;
17175;SDS011;8703;48.996;9.594;2022-08-30T04:08:37;6.77;;;5.00;;
17175;SDS011;8703;48.996;9.594;2022-08-30T04:11:05;7.20;;;4.33;;
17175;SDS011;8703;48.996;9.594;2022-08-30T04:13:32;6.43;;;4.33;;
17175;SDS011;8703;48.996;9.594;2022-08-30T04:16:02;8.40;;;4.50;;
17175;SDS011;8703;48.996;9.594;2022-08-30T04:18:29;8.97;;;4.57;;
17175;SDS011;8703;48.996;9.594;2022-08-30T04:20:57;5.97;;;4.60;;
17175;SDS011;8703;48.996;9.594;2022-08-30T04:23:24;8.93;;;4.80;;
17175;SDS011;8703;48.996;9.594;2022-08-30T04:25:52;8.47;;;4.90;;
17175;SDS011;8703;48.996;9.594;2022-08-30T04:28:20;4.93;;;4.10;;
17175;SDS011;8703;48.996;9.594;2022-08-30T04:30:48;6.33;;;4.40;;
17175;SDS011;8703;48.996;9.594;2022-08-30T04:33:17;6.20;;;4.57;;
17175;SDS011;8703;48.996;9.594;2022-08-30T04:35:44;8.30;;;4.40;;
17175;SDS011;8703;48.996;9.594;2022-08-30T04:38:12;8.03;;;4.70;;
17175;SDS011;8703;48.996;9.594;2022-08-30T04:40:41;7.43;;;4.80;;
17175;SDS011;8703;48.996;9.594;2022-08-30T04:43:08;6.30;;;4.97;;
17175;SDS011;8703;48.996;9.594;2022-08-30T04:45:36;10.33;;;4.77;;
17175;SDS011;8703;48.996;9.594;2022-08-30T04:48:04;6.33;;;4.40;;
17175;SDS011;8703;48.996;9.594;2022-08-30T04:50:33;6.47;;;4.77;;
17175;SDS011;8703;48.996;9.594;2022-08-30T04:53:00;6.93;;;4.90;;
17175;SDS011;8703;48.996;9.594;2022-08-30T04:55:29;7.30;;;4.50;;
17175;SDS011;8703;48.996;9.594;2022-08-30T04:57:57;8.37;;;4.93;;
17175;SDS011;8703;48.996;9.594;2022-08-30T05:00:24;8.63;;;4.43;;
17175;SDS011;8703;48.996;9.594;2022-08-30T05:02:52;7.57;;;4.77;;
17175;SDS011;8703;48.996;9.594;2022-08-30T05:05:19;7.27;;;4.47;;
17175;SDS011;8703;48.996;9.594;2022-08-30T05:08:05;7.37;;;4.60;;
17175;SDS011;8703;48.996;9.594;2022-08-30T05:10:32;8.37;;;4.60;;
17175;SDS011;8703;48.996;9.594;2022-08-30T05:13:02;12.70;;;5.10;;
17175;SDS011;8703;48.996;9.594;2022-08-30T05:15:29;7.33;;;4.43;;
17175;SDS011;8703;48.996;9.594;2022-08-30T05:17:56;5.77;;;4.50;;
17175;SDS011;8703;48.996;9.594;2022-08-30T05:20:24;5.93;;;4.60;;
17175;SDS011;8703;48.996;9.594;2022-08-30T05:22:51;7.17;;;4.80;;
17175;SDS011;8703;48.996;9.594;2022-08-30T05:25:20;7.67;;;4.93;;
17175;SDS011;8703;48.996;9.594;2022-08-30T05:27:48;6.97;;;5.00;;
17175;SDS011;8703;48.996;9.594;2022-08-30T05:30:16;7.97;;;5.13;;
17175;SDS011;8703;48.996;9.594;2022-08-30T05:32:44;8.27;;;4.97;;
17175;SDS011;8703;48.996;9.594;2022-08-30T05:35:12;7.37;;;4.93;;
17175;SDS011;8703;48.996;9.594;2022-08-30T05:37:40;11.33;;;5.27;;
17175;SDS011;8703;48.996;9.594;2022-08-30T05:40:08;8.70;;;4.87;;
17175;SDS011;8703;48.996;9.594;2022-08-30T05:42:37;8.27;;;5.13;;
17175;SDS011;8703;48.996;9.594;2022-08-30T05:45:06;8.23;;;4.97;;
17175;SDS011;8703;48.996;9.594;2022-08-30T05:47:34;9.00;;;5.20;;
17175;SDS011;8703;48.996;9.594;2022-08-30T05:50:02;12.43;;;5.23;;
17175;SDS011;8703;48.996;9.594;2022-08-30T05:52:32;8.53;;;5.40;;
17175;SDS011;8703;48.996;9.594;2022-08-30T05:55:00;6.43;;;5.03;;
17175;SDS011;8703;48.996;9.594;2022-08-30T05:57:30;7.40;;;5.27;;
17175;SDS011;8703;48.996;9.594;2022-08-30T05:59:59;8.63;;;4.67;;
17175;SDS011;8703;48.996;9.594;2022-08-30T06:02:27;9.63;;;5.10;;
17175;SDS011;8703;48.996;9.594;2022-08-30T06:04:54;7.67;;;5.30;;
17175;SDS011;8703;48.996;9.594;2022-08-30T06:07:22;7.00;;;4.93;;
17175;SDS011;8703;48.996;9.594;2022-08-30T06:09:49;9.27;;;4.90;;
17175;SDS011;8703;48.996;9.594;2022-08-30T06:12:16;7.40;;;5.00;;
17175;SDS011;8703;48.996;9.594;2022-08-30T06:14:44;8.50;;;5.27;;
17175;SDS011;8703;48.996;9.594;2022-08-30T06:17:13;7.00;;;5.80;;
17175;SDS011;8703;48.996;9.594;2022-08-30T06:19:40;10.60;;;5.77;;
17175;SDS011;8703;48.996;9.594;2022-08-30T06:22:08;10.93;;;6.03;;
17175;SDS011;8703;48.996;9.594;2022-08-30T06:24:35;8.33;;;5.70;;
17175;SDS011;8703;48.996;9.594;2022-08-30T06:27:03;8.37;;;5.60;;
17175;SDS011;8703;48.996;9.594;2022-08-30T06:29:31;9.53;;;5.37;;
17175;SDS011;8703;48.996;9.594;2022-08-30T06:31:58;6.50;;;5.33;;
17175;SDS011;8703;48.996;9.594;2022-08-30T06:34:27;7.07;;;5.13;;
17175;SDS011;8703;48.996;9.594;2022-08-30T06:36:55;11.60;;;5.87;;
17175;SDS011;8703;48.996;9.594;2022-08-30T06:39:22;8.43;;;6.07;;
17175;SDS011;8703;48.996;9.594;2022-08-30T06:41:50;7.60;;;5.13;;
17175;SDS011;8703;48.996;9.594;2022-08-30T06:44:18;9.20;;;4.77;;
17175;SDS011;8703;48.996;9.594;2022-08-30T06:46:45;9.90;;;5.00;;
17175;SDS011;8703;48.996;9.594;2022-08-30T06:49:12;12.23;;;5.40;;
17175;SDS011;8703;48.996;9.594;2022-08-30T06:51:42;11.03;;;5.50;;
17175;SDS011;8703;48.996;9.594;2022-08-30T06:54:10;7.33;;;4.90;;
17175;SDS011;8703;48.996;9.594;2022-08-30T06:56:37;7.17;;;4.97;;
17175;SDS011;8703;48.996;9.594;2022-08-30T06:59:04;10.20;;;5.77;;
17175;SDS011;8703;48.996;9.594;2022-08-30T07:01:32;10.00;;;5.53;;
17175;SDS011;8703;48.996;9.594;2022-08-30T07:03:59;14.10;;;5.70;;
17175;SDS011;8703;48.996;9.594;2022-08-30T07:06:27;9.03;;;5.30;;
17175;SDS011;8703;48.996;9.594;2022-08-30T07:08:58;12.60;;;5.10;;
17175;SDS011;8703;48.996;9.594;2022-08-30T07:11:26;12.90;;;5.83;;
17175;SDS011;8703;48.996;9.594;2022-08-30T07:13:55;8.75;;;5.45;;
17175;SDS011;8703;48.996;9.594;2022-08-30T07:16:23;9.03;;;5.00;;
17175;SDS011;8703;48.996;9.594;2022-08-30T07:18:51;7.53;;;4.75;;
17175;SDS011;8703;48.996;9.594;2022-08-30T07:21:19;7.57;;;4.30;;
17175;SDS011;8703;48.996;9.594;2022-08-30T07:23:48;9.05;;;4.80;;
17175;SDS011;8703;48.996;9.594;2022-08-30T07:26:19;7.80;;;4.10;;
17175;SDS011;8703;48.996;9.594;2022-08-30T07:28:48;6.43;;;4.32;;
17175;SDS011;8703;48.996;9.594;2022-08-30T07:31:16;5.75;;;4.05;;
17175;SDS011;8703;48.996;9.594;2022-08-30T07:33:44;5.97;;;4.50;;
17175;SDS011;8703;48.996;9.594;2022-08-30T07:36:12;5.47;;;4.18;;
17175;SDS011;8703;48.996;9.594;2022-08-30T07:38:41;6.65;;;4.05;;
17175;SDS011;8703;48.996;9.594;2022-08-30T07:41:14;8.48;;;4.07;;
17175;SDS011;8703;48.996;9.594;2022-08-30T07:43:44;6.85;;;4.30;;
17175;SDS011;8703;48.996;9.594;2022-08-30T07:46:11;7.05;;;4.22;;
17175;SDS011;8703;48.996;9.594;2022-08-30T07:48:39;6.43;;;4.25;;
17175;SDS011;8703;48.996;9.594;2022-08-30T07:51:10;8.00;;;4.35;;
17175;SDS011;8703;48.996;9.594;2022-08-30T07:53:39;6.22;;;4.30;;
17175;SDS011;8703;48.996;9.594;2022-08-30T07:56:07;7.10;;;4.53;;
17175;SDS011;8703;48.996;9.594;2022-08-30T07:58:35;6.28;;;3.90;;
17175;SDS011;8703;48.996;9.594;2022-08-30T08:01:04;4.88;;;3.60;;
17175;SDS011;8703;48.996;9.594;2022-08-30T08:03:32;7.00;;;3.92;;
17175;SDS011;8703;48.996;9.594;2022-08-30T08:06:00;5.82;;;3.60;;
17175;SDS011;8703;48.996;9.594;2022-08-30T08:08:29;5.93;;;3.55;;
17175;SDS011;8703;48.996;9.594;2022-08-30T08:10:57;5.20;;;3.70;;
17175;SDS011;8703;48.996;9.594;2022-08-30T08:13:30;4.32;;;3.53;;
17175;SDS011;8703;48.996;9.594;2022-08-30T08:15:58;6.35;;;4.10;;
17175;SDS011;8703;48.996;9.594;2022-08-30T08:18:26;5.85;;;3.70;;
17175;SDS011;8703;48.996;9.594;2022-08-30T08:20:53;6.20;;;3.58;;
17175;SDS011;8703;48.996;9.594;2022-08-30T08:23:20;6.25;;;3.72;;
17175;SDS011;8703;48.996;9.594;2022-08-30T08:25:48;5.72;;;3.30;;
17175;SDS011;8703;48.996;9.594;2022-08-30T08:28:15;5.07;;;3.60;;
17175;SDS011;8703;48.996;9.594;2022-08-30T08:30:43;5.05;;;3.78;;
17175;SDS011;8703;48.996;9.594;2022-08-30T08:33:12;4.53;;;3.78;;
17175;SDS011;8703;48.996;9.594;2022-08-30T08:35:39;5.55;;;3.50;;
17175;SDS011;8703;48.996;9.594;2022-08-30T08:38:07;5.38;;;3.58;;
17175;SDS011;8703;48.996;9.594;2022-08-30T08:40:36;5.57;;;3.90;;
17175;SDS011;8703;48.996;9.594;2022-08-30T08:43:09;5.28;;;3.80;;
17175;SDS011;8703;48.996;9.594;2022-08-30T08:45:42;6.45;;;3.65;;
17175;SDS011;8703;48.996;9.594;2022-08-30T08:48:17;6.28;;;3.72;;
17175;SDS011;8703;48.996;9.594;2022-08-30T08:50:52;4.93;;;3.75;;
17175;SDS011;8703;48.996;9.594;2022-08-30T08:53:37;4.82;;;3.90;;
17175;SDS011;8703;48.996;9.594;2022-08-30T08:56:06;5.03;;;3.85;;
17175;SDS011;8703;48.996;9.594;2022-08-30T08:58:40;8.07;;;3.90;;
17175;SDS011;8703;48.996;9.594;2022-08-30T09:01:09;4.57;;;3.85;;
17175;SDS011;8703;48.996;9.594;2022-08-30T09:03:38;6.72;;;4.03;;
17175;SDS011;8703;48.996;9.594;2022-08-30T09:06:10;10.75;;;4.18;;
17175;SDS011;8703;48.996;9.594;2022-08-30T09:09:05;7.43;;;4.10;;
17175;SDS011;8703;48.996;9.594;2022-08-30T09:11:34;5.05;;;4.07;;
17175;SDS011;8703;48.996;9.594;2022-08-30T09:14:02;5.28;;;4.13;;
17175;SDS011;8703;48.996;9.594;2022-08-30T09:22:10;6.93;;;4.68;;
17175;SDS011;8703;48.996;9.594;2022-08-30T09:24:47;6.70;;;4.57;;
17175;SDS011;8703;48.996;9.594;2022-08-30T09:27:17;6.05;;;4.22;;
17175;SDS011;8703;48.996;9.594;2022-08-30T09:29:50;6.43;;;4.40;;
17175;SDS011;8703;48.996;9.594;2022-08-30T09:32:31;4.55;;;4.13;;
17175;SDS011;8703;48.996;9.594;2022-08-30T09:35:01;5.15;;;3.70;;
17175;SDS011;8703;48.996;9.594;2022-08-30T09:37:32;6.78;;;4.35;;
17175;SDS011;8703;48.996;9.594;2022-08-30T09:40:01;6.63;;;4.40;;
17175;SDS011;8703;48.996;9.594;2022-08-30T09:42:39;5.97;;;4.28;;
17175;SDS011;8703;48.996;9.594;2022-08-30T09:45:13;5.15;;;4.30;;
17175;SDS011;8703;48.996;9.594;2022-08-30T09:47:45;4.80;;;4.28;;
17175;SDS011;8703;48.996;9.594;2022-08-30T09:50:14;5.53;;;4.20;;
17175;SDS011;8703;48.996;9.594;2022-08-30T09:52:51;5.80;;;4.60;;
17175;SDS011;8703;48.996;9.594;2022-08-30T09:55:27;6.00;;;4.38;;
17175;SDS011;8703;48.996;9.594;2022-08-30T09:58:02;5.70;;;4.30;;
17175;SDS011;8703;48.996;9.594;2022-08-30T10:00:37;4.50;;;4.13;;
17175;SDS011;8703;48.996;9.594;2022-08-30T10:03:13;5.40;;;4.90;;
17175;SDS011;8703;48.996;9.594;2022-08-30T10:05:49;4.78;;;4.22;;
17175;SDS011;8703;48.996;9.594;2022-08-30T10:08:24;6.13;;;3.95;;
17175;SDS011;8703;48.996;9.594;2022-08-30T10:10:58;4.72;;;3.97;;
17175;SDS011;8703;48.996;9.594;2022-08-30T10:13:30;4.68;;;4.28;;
17175;SDS011;8703;48.996;9.594;2022-08-30T10:16:06;4.22;;;3.78;;
17175;SDS011;8703;48.996;9.594;2022-08-30T10:18:42;5.22;;;4.03;;
17175;SDS011;8703;48.996;9.594;2022-08-30T10:21:16;5.38;;;4.18;;
17175;SDS011;8703;48.996;9.594;2022-08-30T10:23:47;5.75;;;4.00;;
17175;SDS011;8703;48.996;9.594;2022-08-30T10:26:22;6.75;;;4.55;;
17175;SDS011;8703;48.996;9.594;2022-08-30T10:28:54;5.18;;;4.15;;
17175;SDS011;8703;48.996;9.594;2022-08-30T10:31:24;5.63;;;4.45;;
17175;SDS011;8703;48.996;9.594;2022-08-30T10:33:55;4.65;;;4.13;;
17175;SDS011;8703;48.996;9.594;2022-08-30T10:36:29;4.65;;;4.13;;
17175;SDS011;8703;48.996;9.594;2022-08-30T10:38:58;5.15;;;3.83;;
17175;SDS011;8703;48.996;9.594;2022-08-30T10:41:28;6.70;;;4.50;;
17175;SDS011;8703;48.996;9.594;2022-08-30T10:44:01;4.25;;;3.85;;
17175;SDS011;8703;48.996;9.594;2022-08-30T10:46:32;4.25;;;3.85;;
17175;SDS011;8703;48.996;9.594;2022-08-30T10:49:04;5.55;;;4.40;;
17175;SDS011;8703;48.996;9.594;2022-08-30T10:51:43;5.35;;;3.95;;
17175;SDS011;8703;48.996;9.594;2022-08-30T10:54:14;5.55;;;4.30;;
17175;SDS011;8703;48.996;9.594;2022-08-30T10:56:43;4.80;;;4.18;;
17175;SDS011;8703;48.996;9.594;2022-08-30T10:59:14;4.93;;;4.43;;
17175;SDS011;8703;48.996;9.594;2022-08-30T11:01:48;5.72;;;4.30;;
17175;SDS011;8703;48.996;9.594;2022-08-30T11:04:34;5.30;;;3.92;;
17175;SDS011;8703;48.996;9.594;2022-08-30T11:07:14;5.93;;;4.60;;
17175;SDS011;8703;48.996;9.594;2022-08-30T11:10:03;4.60;;;4.07;;
17175;SDS011;8703;48.996;9.594;2022-08-30T11:12:41;6.55;;;4.38;;
17175;SDS011;8703;48.996;9.594;2022-08-30T11:15:19;5.47;;;3.97;;
17175;SDS011;8703;48.996;9.594;2022-08-30T11:17:52;5.63;;;4.50;;
17175;SDS011;8703;48.996;9.594;2022-08-30T11:20:27;5.80;;;3.67;;
17175;SDS011;8703;48.996;9.594;2022-08-30T11:25:54;6.63;;;4.03;;
17175;SDS011;8703;48.996;9.594;2022-08-30T11:34:14;4.75;;;4.10;;
17175;SDS011;8703;48.996;9.594;2022-08-30T11:37:34;6.25;;;4.40;;
17175;SDS011;8703;48.996;9.594;2022-08-30T11:40:07;4.57;;;4.13;;
17175;SDS011;8703;48.996;9.594;2022-08-30T11:42:37;4.68;;;4.28;;
17175;SDS011;8703;48.996;9.594;2022-08-30T11:51:33;4.32;;;3.92;;
17175;SDS011;8703;48.996;9.594;2022-08-30T11:54:17;5.43;;;3.90;;
17175;SDS011;8703;48.996;9.594;2022-08-30T11:56:52;4.15;;;3.58;;
17175;SDS011;8703;48.996;9.594;2022-08-30T11:59:27;10.25;;;4.65;;
17175;SDS011;8703;48.996;9.594;2022-08-30T12:01:59;5.18;;;4.18;;
17175;SDS011;8703;48.996;9.594;2022-08-30T12:04:33;5.68;;;3.92;;
17175;SDS011;8703;48.996;9.594;2022-08-30T12:07:02;4.78;;;4.20;;
17175;SDS011;8703;48.996;9.594;2022-08-30T12:12:50;6.70;;;3.88;;
17175;SDS011;8703;48.996;9.594;2022-08-30T12:15:25;5.03;;;4.25;;
17175;SDS011;8703;48.996;9.594;2022-08-30T12:18:14;5.35;;;4.40;;
17175;SDS011;8703;48.996;9.594;2022-08-30T12:20:55;5.28;;;4.07;;
17175;SDS011;8703;48.996;9.594;2022-08-30T12:23:33;6.28;;;4.43;;
17175;SDS011;8703;48.996;9.594;2022-08-30T12:26:14;6.00;;;4.45;;
17175;SDS011;8703;48.996;9.594;2022-08-30T12:28:45;5.72;;;3.95;;
17175;SDS011;8703;48.996;9.594;2022-08-30T12:31:16;5.82;;;4.03;;
17175;SDS011;8703;48.996;9.594;2022-08-30T12:33:46;5.28;;;4.35;;
17175;SDS011;8703;48.996;9.594;2022-08-30T12:36:15;4.53;;;3.90;;
17175;SDS011;8703;48.996;9.594;2022-08-30T12:39:03;7.75;;;4.30;;
17175;SDS011;8703;48.996;9.594;2022-08-30T12:41:31;7.68;;;4.00;;
17175;SDS011;8703;48.996;9.594;2022-08-30T12:44:00;6.60;;;4.32;;
17175;SDS011;8703;48.996;9.594;2022-08-30T12:46:28;6.53;;;4.13;;
17175;SDS011;8703;48.996;9.594;2022-08-30T12:48:56;5.03;;;4.15;;
17175;SDS011;8703;48.996;9.594;2022-08-30T12:51:28;5.35;;;4.18;;
17175;SDS011;8703;48.996;9.594;2022-08-30T12:54:02;6.28;;;4.07;;
17175;SDS011;8703;48.996;9.594;2022-08-30T12:56:48;5.78;;;4.20;;
17175;SDS011;8703;48.996;9.594;2022-08-30T13:02:13;5.07;;;4.20;;
17175;SDS011;8703;48.996;9.594;2022-08-30T13:04:42;8.30;;;4.72;;
17175;SDS011;8703;48.996;9.594;2022-08-30T13:07:11;7.63;;;4.28;;
17175;SDS011;8703;48.996;9.594;2022-08-30T13:10:04;5.88;;;4.20;;
17175;SDS011;8703;48.996;9.594;2022-08-30T13:12:34;5.03;;;3.88;;
17175;SDS011;8703;48.996;9.594;2022-08-30T13:15:14;4.47;;;3.90;;
17175;SDS011;8703;48.996;9.594;2022-08-30T13:17:43;4.93;;;4.40;;
17175;SDS011;8703;48.996;9.594;2022-08-30T13:20:22;4.72;;;4.32;;
17175;SDS011;8703;48.996;9.594;2022-08-30T13:23:02;4.65;;;3.75;;
17175;SDS011;8703;48.996;9.594;2022-08-30T13:25:31;7.07;;;4.38;;
17175;SDS011;8703;48.996;9.594;2022-08-30T13:27:59;4.75;;;3.78;;
17175;SDS011;8703;48.996;9.594;2022-08-30T13:30:28;6.43;;;4.03;;
17175;SDS011;8703;48.996;9.594;2022-08-30T13:32:56;4.82;;;4.05;;
17175;SDS011;8703;48.996;9.594;2022-08-30T13:35:25;4.65;;;4.25;;
17175;SDS011;8703;48.996;9.594;2022-08-30T13:37:53;4.63;;;4.07;;
17175;SDS011;8703;48.996;9.594;2022-08-30T13:40:21;4.47;;;4.07;;
17175;SDS011;8703;48.996;9.594;2022-08-30T13:42:48;4.85;;;4.20;;
17175;SDS011;8703;48.996;9.594;2022-08-30T13:45:16;6.22;;;4.00;;
17175;SDS011;8703;48.996;9.594;2022-08-30T13:47:45;5.10;;;4.07;;
17175;SDS011;8703;48.996;9.594;2022-08-30T13:50:14;4.65;;;4.15;;
17175;SDS011;8703;48.996;9.594;2022-08-30T13:52:43;6.05;;;4.30;;
17175;SDS011;8703;48.996;9.594;2022-08-30T13:55:10;4.57;;;4.05;;
17175;SDS011;8703;48.996;9.594;2022-08-30T13:57:38;5.70;;;4.00;;
17175;SDS011;8703;48.996;9.594;2022-08-30T14:00:06;4.78;;;4.38;;
17175;SDS011;8703;48.996;9.594;2022-08-30T14:02:36;5.65;;;4.18;;
17175;SDS011;8703;48.996;9.594;2022-08-30T14:05:07;5.35;;;4.50;;
17175;SDS011;8703;48.996;9.594;2022-08-30T14:07:35;5.28;;;4.15;;
17175;SDS011;8703;48.996;9.594;2022-08-30T14:10:03;6.03;;;3.97;;
17175;SDS011;8703;48.996;9.594;2022-08-30T14:12:31;6.05;;;4.18;;
17175;SDS011;8703;48.996;9.594;2022-08-30T14:14:58;5.68;;;4.00;;
17175;SDS011;8703;48.996;9.594;2022-08-30T14:17:26;5.53;;;3.85;;
17175;SDS011;8703;48.996;9.594;2022-08-30T14:19:56;4.55;;;4.10;;
17175;SDS011;8703;48.996;9.594;2022-08-30T14:22:25;5.40;;;4.00;;
17175;SDS011;8703;48.996;9.594;2022-08-30T14:24:53;5.00;;;4.00;;
17175;SDS011;8703;48.996;9.594;2022-08-30T14:27:20;5.43;;;4.00;;
17175;SDS011;8703;48.996;9.594;2022-08-30T14:29:48;7.50;;;4.30;;
17175;SDS011;8703;48.996;9.594;2022-08-30T14:32:16;5.03;;;4.00;;
17175;SDS011;8703;48.996;9.594;2022-08-30T14:34:43;5.45;;;4.18;;
17175;SDS011;8703;48.996;9.594;2022-08-30T14:37:10;6.43;;;4.10;;
17175;SDS011;8703;48.996;9.594;2022-08-30T14:39:39;4.80;;;4.22;;
17175;SDS011;8703;48.996;9.594;2022-08-30T14:42:07;5.40;;;4.03;;
17175;SDS011;8703;48.996;9.594;2022-08-30T14:44:35;7.10;;;4.22;;
17175;SDS011;8703;48.996;9.594;2022-08-30T14:47:03;6.55;;;3.80;;
17175;SDS011;8703;48.996;9.594;2022-08-30T14:49:31;3.75;;;3.45;;
17175;SDS011;8703;48.996;9.594;2022-08-30T14:51:59;4.60;;;4.20;;
17175;SDS011;8703;48.996;9.594;2022-08-30T14:54:27;5.22;;;3.78;;
17175;SDS011;8703;48.996;9.594;2022-08-30T14:56:57;5.15;;;3.95;;
17175;SDS011;8703;48.996;9.594;2022-08-30T14:59:24;4.50;;;4.00;;
17175;SDS011;8703;48.996;9.594;2022-08-30T15:01:52;4.88;;;3.80;;
17175;SDS011;8703;48.996;9.594;2022-08-30T15:04:20;4.47;;;3.72;;
17175;SDS011;8703;48.996;9.594;2022-08-30T15:06:47;5.75;;;3.72;;
17175;SDS011;8703;48.996;9.594;2022-08-30T15:09:16;6.70;;;3.83;;
17175;SDS011;8703;48.996;9.594;2022-08-30T15:11:45;5.68;;;3.75;;
17175;SDS011;8703;48.996;9.594;2022-08-30T15:14:14;6.72;;;3.75;;
17175;SDS011;8703;48.996;9.594;2022-08-30T15:16:41;4.43;;;4.03;;
17175;SDS011;8703;48.996;9.594;2022-08-30T15:19:09;6.13;;;3.53;;
17175;SDS011;8703;48.996;9.594;2022-08-30T15:21:38;4.38;;;3.70;;
17175;SDS011;8703;48.996;9.594;2022-08-30T15:24:06;4.13;;;3.72;;
17175;SDS011;8703;48.996;9.594;2022-08-30T15:26:35;4.32;;;3.60;;
17175;SDS011;8703;48.996;9.594;2022-08-30T15:29:05;5.25;;;3.40;;
17175;SDS011;8703;48.996;9.594;2022-08-30T15:31:34;4.55;;;3.42;;
17175;SDS011;8703;48.996;9.594;2022-08-30T15:34:02;5.18;;;3.53;;
17175;SDS011;8703;48.996;9.594;2022-08-30T15:36:29;4.60;;;3.53;;
17175;SDS011;8703;48.996;9.594;2022-08-30T15:38:57;5.78;;;3.72;;
17175;SDS011;8703;48.996;9.594;2022-08-30T15:41:24;4.78;;;3.30;;
17175;SDS011;8703;48.996;9.594;2022-08-30T15:43:52;3.92;;;3.53;;